createdAt,value
2022-08-28T00:01:28.270Z,6.82
2022-08-28T00:06:50.070Z,6.75
2022-08-28T00:12:11.928Z,6.88
2022-08-28T00:17:33.766Z,6.60
2022-08-28T00:22:56.326Z,7.13
2022-08-28T00:28:24.263Z,6.63
2022-08-28T00:33:48.189Z,6.70
2022-08-28T00:39:10.164Z,7.35
2022-08-28T00:44:32.337Z,6.50
2022-08-28T00:49:55.673Z,7.22
2022-08-28T00:55:20.803Z,7.10
2022-08-28T01:00:42.994Z,6.93
2022-08-28T01:06:06.751Z,6.55
2022-08-28T01:11:29.328Z,6.07
2022-08-28T01:16:53.076Z,6.18
2022-08-28T01:22:27.152Z,6.57
2022-08-28T01:27:48.972Z,6.57
2022-08-28T01:33:10.925Z,6.88
2022-08-28T01:38:34.055Z,6.20
2022-08-28T01:43:55.895Z,6.75
2022-08-28T01:49:18.177Z,7.22
2022-08-28T01:54:40.119Z,6.43
2022-08-28T02:00:02.848Z,6.63
2022-08-28T02:05:27.014Z,6.32
2022-08-28T02:10:48.892Z,6.85
2022-08-28T02:16:10.865Z,6.72
2022-08-28T02:21:32.810Z,6.63
2022-08-28T02:26:54.618Z,6.38
2022-08-28T02:32:16.555Z,5.97
2022-08-28T02:37:38.408Z,6.32
2022-08-28T02:43:00.251Z,6.25
2022-08-28T02:48:22.109Z,5.80
2022-08-28T02:53:44.106Z,5.55
2022-08-28T02:59:05.934Z,5.63
2022-08-28T03:04:27.749Z,6.00
2022-08-28T03:09:50.563Z,6.20
2022-08-28T03:15:12.830Z,5.55
2022-08-28T03:20:34.941Z,6.70
2022-08-28T03:26:02.587Z,5.70
2022-08-28T03:31:28.332Z,6.10
2022-08-28T03:36:50.131Z,7.23
2022-08-28T03:42:12.906Z,6.30
2022-08-28T03:47:37.685Z,6.22
2022-08-28T03:52:59.530Z,6.55
2022-08-28T03:58:21.991Z,6.40
2022-08-28T04:03:44.415Z,6.40
2022-08-28T04:09:06.619Z,7.28
2022-08-28T04:14:28.461Z,6.53
2022-08-28T04:19:53.929Z,6.38
2022-08-28T04:25:15.865Z,6.60
2022-08-28T04:30:40.967Z,6.43
2022-08-28T04:36:05.939Z,6.30
2022-08-28T04:41:28.555Z,6.05
2022-08-28T04:46:50.407Z,6.18
2022-08-28T04:52:12.249Z,5.93
2022-08-28T04:57:36.434Z,6.22
2022-08-28T05:02:58.435Z,6.75
2022-08-28T05:08:23.871Z,7.03
2022-08-28T05:13:45.750Z,6.27
2022-08-28T05:19:07.563Z,6.22
2022-08-28T05:24:29.381Z,6.20
2022-08-28T05:29:51.712Z,6.50
2022-08-28T05:35:13.545Z,5.88
2022-08-28T05:40:41.989Z,6.10
2022-08-28T05:46:07.223Z,5.97
2022-08-28T05:51:30.012Z,5.55
2022-08-28T05:56:51.892Z,6.53
2022-08-28T06:02:13.901Z,5.68
2022-08-28T06:07:36.151Z,5.60
2022-08-28T06:12:57.982Z,5.88
2022-08-28T06:18:19.941Z,5.78
2022-08-28T06:23:41.782Z,6.07
2022-08-28T06:29:07.076Z,5.60
2022-08-28T06:34:29.019Z,5.90
2022-08-28T06:39:50.823Z,5.55
2022-08-28T06:45:12.732Z,5.32
2022-08-28T06:50:38.960Z,5.40
2022-08-28T06:56:03.954Z,6.65
2022-08-28T07:01:30.113Z,5.90
2022-08-28T07:06:54.630Z,4.82
2022-08-28T07:12:18.023Z,5.40
2022-08-28T07:23:01.603Z,5.43
2022-08-28T07:28:23.463Z,5.45
2022-08-28T07:33:45.864Z,5.25
2022-08-28T07:39:09.039Z,4.83
2022-08-28T07:49:52.646Z,5.68
2022-08-28T07:55:14.516Z,5.53
2022-08-28T08:00:36.344Z,5.32
2022-08-28T08:06:03.514Z,5.38
2022-08-28T08:11:26.380Z,6.07
2022-08-28T08:16:54.247Z,5.10
2022-08-28T08:22:16.157Z,5.60
2022-08-28T08:27:42.797Z,5.63
2022-08-28T08:33:05.077Z,5.65
2022-08-28T08:38:29.975Z,5.90
2022-08-28T08:44:13.243Z,4.50
2022-08-28T08:55:16.744Z,5.35
2022-08-28T09:01:05.102Z,4.63
2022-08-28T09:06:43.588Z,5.20
2022-08-28T09:12:13.880Z,4.68
2022-08-28T09:17:41.411Z,4.70
2022-08-28T09:23:12.724Z,4.88
2022-08-28T09:28:39.390Z,4.63
2022-08-28T09:34:23.810Z,5.15
2022-08-28T09:39:48.752Z,5.10
2022-08-28T09:45:17.787Z,5.00
2022-08-28T09:50:40.544Z,5.82
2022-08-28T09:56:25.352Z,5.70
2022-08-28T10:01:51.292Z,5.25
2022-08-28T10:07:54.881Z,4.88
2022-08-28T10:13:35.227Z,4.37
2022-08-28T10:19:12.079Z,4.80
2022-08-28T10:25:19.001Z,5.47
2022-08-28T10:31:10.505Z,4.57
2022-08-28T10:36:35.252Z,4.72
2022-08-28T10:42:03.855Z,4.80
2022-08-28T10:47:29.127Z,5.10
2022-08-28T10:53:02.731Z,5.18
2022-08-28T10:58:27.112Z,5.43
2022-08-28T11:03:51.244Z,5.25
2022-08-28T11:09:29.411Z,5.15
2022-08-28T11:14:51.556Z,5.22
2022-08-28T11:20:24.254Z,5.38
2022-08-28T11:25:57.650Z,5.40
2022-08-28T11:31:31.733Z,4.53
2022-08-28T11:36:59.638Z,4.88
2022-08-28T11:42:34.407Z,4.20
2022-08-28T11:47:56.211Z,4.27
2022-08-28T11:53:50.410Z,4.65
2022-08-28T11:59:47.387Z,4.33
2022-08-28T12:05:37.775Z,4.80
2022-08-28T12:10:59.685Z,4.35
2022-08-28T12:16:21.573Z,4.28
2022-08-28T12:21:43.684Z,4.40
2022-08-28T12:27:07.989Z,4.20
2022-08-28T12:32:51.476Z,4.53
2022-08-28T12:38:20.185Z,4.20
2022-08-28T12:43:46.784Z,4.80
2022-08-28T12:49:37.167Z,4.28
2022-08-28T12:54:59.011Z,4.50
2022-08-28T13:00:29.240Z,3.75
2022-08-28T13:06:02.679Z,4.00
2022-08-28T13:11:24.619Z,4.80
2022-08-28T13:16:47.247Z,4.47
2022-08-28T13:22:33.451Z,4.55
2022-08-28T13:27:58.007Z,4.22
2022-08-28T13:33:24.814Z,4.70
2022-08-28T13:38:46.642Z,3.95
2022-08-28T13:44:09.238Z,4.50
2022-08-28T13:49:31.031Z,4.40
2022-08-28T13:54:52.839Z,4.55
2022-08-28T14:00:15.399Z,4.55
2022-08-28T14:05:37.206Z,4.53
2022-08-28T14:10:59.486Z,4.47
2022-08-28T14:16:21.295Z,4.38
2022-08-28T14:21:43.188Z,5.22
2022-08-28T14:27:05.051Z,4.47
2022-08-28T14:32:27.129Z,4.68
2022-08-28T14:37:48.973Z,5.25
2022-08-28T14:43:13.744Z,5.30
2022-08-28T14:48:35.682Z,4.88
2022-08-28T14:53:59.357Z,5.07
2022-08-28T14:59:28.005Z,5.35
2022-08-28T15:04:49.873Z,4.97
2022-08-28T15:10:11.713Z,5.30
2022-08-28T15:15:33.514Z,5.38
2022-08-28T15:20:55.818Z,4.95
2022-08-28T15:26:18.812Z,4.03
2022-08-28T15:31:43.695Z,4.60
2022-08-28T15:37:07.899Z,4.70
2022-08-28T15:42:29.994Z,4.90
2022-08-28T15:47:52.281Z,4.97
2022-08-28T15:53:15.022Z,4.68
2022-08-28T15:58:40.011Z,4.72
2022-08-28T16:04:01.928Z,4.50
2022-08-28T16:09:23.860Z,4.35
2022-08-28T16:14:45.666Z,4.65
2022-08-28T16:20:13.040Z,4.90
2022-08-28T16:25:35.540Z,4.32
2022-08-28T16:30:57.584Z,4.65
2022-08-28T16:36:19.520Z,4.43
2022-08-28T16:41:45.515Z,4.35
2022-08-28T16:47:07.465Z,5.13
2022-08-28T16:52:29.368Z,4.63
2022-08-28T16:57:52.270Z,7.10
2022-08-28T17:03:14.113Z,4.90
2022-08-28T17:08:44.877Z,4.68
2022-08-28T17:14:06.786Z,5.22
2022-08-28T17:19:28.685Z,4.75
2022-08-28T17:24:50.786Z,5.03
2022-08-28T17:30:14.733Z,5.13
2022-08-28T17:35:42.049Z,4.57
2022-08-28T17:41:04.318Z,5.50
2022-08-28T17:46:26.245Z,6.10
2022-08-28T17:51:49.168Z,5.60
2022-08-28T17:57:10.979Z,4.43
2022-08-28T18:02:32.782Z,4.15
2022-08-28T18:07:54.634Z,4.15
2022-08-28T18:13:16.938Z,4.65
2022-08-28T18:18:38.778Z,4.00
2022-08-28T18:24:00.697Z,4.55
2022-08-28T18:29:22.485Z,4.07
2022-08-28T18:34:46.552Z,3.97
2022-08-28T18:40:08.843Z,3.55
2022-08-28T18:45:31.277Z,3.90
2022-08-28T18:50:53.193Z,4.28
2022-08-28T18:56:16.419Z,3.55
2022-08-28T19:01:39.140Z,3.33
2022-08-28T19:07:01.157Z,3.53
2022-08-28T19:12:24.719Z,2.55
2022-08-28T19:17:46.550Z,2.38
2022-08-28T19:23:08.387Z,2.50
2022-08-28T19:28:30.209Z,2.88
2022-08-28T19:33:52.070Z,2.50
2022-08-28T19:39:14.220Z,2.10
2022-08-28T19:44:38.329Z,2.00
2022-08-28T19:50:00.235Z,2.10
2022-08-28T19:55:25.749Z,2.30
2022-08-28T20:00:47.587Z,1.57
2022-08-28T20:06:09.411Z,1.80
2022-08-28T20:11:31.267Z,2.25
2022-08-28T20:16:53.969Z,2.67
2022-08-28T20:22:16.573Z,1.75
2022-08-28T20:27:38.449Z,2.03
2022-08-28T20:33:00.349Z,1.88
2022-08-28T20:38:22.338Z,2.10
2022-08-28T20:43:45.374Z,2.10
2022-08-28T20:49:09.692Z,2.17
2022-08-28T20:54:36.737Z,2.60
2022-08-28T21:00:02.269Z,2.00
2022-08-28T21:05:27.350Z,2.53
2022-08-28T21:10:52.125Z,2.70
2022-08-28T21:16:14.536Z,1.92
2022-08-28T21:21:37.866Z,2.22
2022-08-28T21:26:59.996Z,4.25
2022-08-28T21:32:21.812Z,6.10
2022-08-28T21:37:44.296Z,2.20
2022-08-28T21:43:06.273Z,2.25
2022-08-28T21:48:28.666Z,2.55
2022-08-28T21:53:51.218Z,2.50
2022-08-28T21:59:13.094Z,2.92
2022-08-28T22:04:35.768Z,2.58
2022-08-28T22:09:57.677Z,2.92
2022-08-28T22:15:19.645Z,2.30
2022-08-28T22:20:44.762Z,2.25
2022-08-28T22:26:12.472Z,1.75
2022-08-28T22:31:34.627Z,2.20
2022-08-28T22:36:58.563Z,2.03
2022-08-28T22:42:20.438Z,2.67
2022-08-28T22:47:42.248Z,3.42
2022-08-28T22:53:04.546Z,4.13
2022-08-28T22:58:31.480Z,4.30
2022-08-28T23:03:53.410Z,4.65
2022-08-28T23:09:15.295Z,4.70
2022-08-28T23:14:37.270Z,5.43
2022-08-28T23:19:59.376Z,5.05
2022-08-28T23:25:23.118Z,5.38
2022-08-28T23:30:49.730Z,5.53
2022-08-28T23:36:12.058Z,5.78
2022-08-28T23:41:34.087Z,5.53
2022-08-28T23:46:55.908Z,5.70
2022-08-28T23:52:17.920Z,5.57
2022-08-28T23:57:39.814Z,6.07
